LGIRLGKP

Guest
Details From LGIR - Iraklion - Nizos Kazantzakis
To LGKP - KARPATHOS
Flight Number -
Tags decoded
Created
Modified
Stats Distance 132 nm / 244 km
Max Altitude 0 ft / 0 m
Waypoints 5
Social Downloads 0
Likes 0
Share VATSIM

Download

Looking for another format? Having issues loading an existing format? Contact us
Advertisement - Login to hide

Notes

Requested: LGIR IRA ATLAN ALIKI LGKP

Route

LGIR IRA ATLAN ALIKI LGKP

ID Type Via Altitude Latitude Longitude Leg Dist Tot Dist Heading (true) Name
O LGIR APT - 0 ft / 0 m 35.33949˚ 25.18012˚ - 0 nm - Iraklion - Nizos Kazantzakis
IRA VOR - 0 ft / 0 m 35.34083˚ 25.18528˚ 0 nm 0 nm 72° / 72° IRAKLION VOR-DME
ATLAN FIX - 0 ft / 0 m 35.84750˚ 25.42611˚ 32 nm 32 nm 21° / 21° -
ALIKI FIX - 0 ft / 0 m 35.92500˚ 25.34889˚ 5 nm 38 nm 321° / 321° -
O LGKP APT - 0 ft / 0 m 35.42141˚ 27.14601˚ 92 nm 131 nm 109° / 110° KARPATHOS

Altitude Profile

Advertisement - Login to hide

LGIR

Details ICAO LGIR (HER)
Name Iraklion - Nizos Kazantzakis
Region Greece
Timezone Europe/Athens (UTC+3.0)
Stats Elevation 115 ft / 35 m (AMSL)
Location 35.339487° 25.180120°
Runways 3
Magnetic Variation 4.421° E

METAR

LGIR 230920Z 35005KT CAVOK 25/21 Q1017 NOSIG

Decode

TAF

TAF LGIR 230500Z 2306/2406 04008KT 9999 FEW018 BECMG 2320/2322 18010KT

Decode

Departure Runways

ID Width Length Bearing (true) Bearing (mag) Surface Threshold Offset Overrun Length
09 148 ft / 45 m 8,755 ft / 2,669 m 94.84° 90.42° Asphalt 1,565 ft / 477 m 200 ft / 61 m
12 164 ft / 50 m 5,136 ft / 1,566 m 126.27° 121.85° Asphalt 499 ft / 152 m 190 ft / 58 m
18 131 ft / 40 m 2,607 ft / 795 m 180.40° 175.98° Asphalt 0 ft / 0 m 0 ft / 0 m
27 148 ft / 45 m 8,755 ft / 2,669 m 274.86° 270.44° Asphalt 0 ft / 0 m 210 ft / 64 m
30 164 ft / 50 m 5,136 ft / 1,566 m 306.28° 301.86° Asphalt 0 ft / 0 m 0 ft / 0 m
36 131 ft / 40 m 2,607 ft / 795 m 0.40° 355.98° Asphalt 328 ft / 100 m 0 ft / 0 m

LGKP

Details ICAO LGKP (AOK)
Name KARPATHOS
Region Greece
Timezone Europe/Athens (UTC+3.0)
Stats Elevation 66 ft / 20 m (AMSL)
Location 35.421407° 27.146007°
Runways 1
Magnetic Variation 4.630° E

METAR

LGKP 230920Z 29018KT CAVOK 25/19 Q1016

Decode

TAF

Not found

Destination Runways

ID Width Length Bearing (true) Bearing (mag) Surface Threshold Offset Overrun Length
12 98 ft / 30 m 7,866 ft / 2,398 m 124.49° 119.86° Asphalt 492 ft / 150 m 983 ft / 300 m
30 98 ft / 30 m 7,866 ft / 2,398 m 304.50° 299.87° Asphalt 492 ft / 150 m 458 ft / 140 m

Popular Alternatives